CheckWX is a tool to help pilots better visualize weather data.  It is not intended as a substitute for an official pre-flight weather briefing.

13:26:25 UTC

UADD TAF
Taraz Airport
Taraz, Kazakhstan
TAF UADD 241100Z 2412/2421 26005G10MPS 5000 -SHRA BR SCT050CB BKN100 TEMPO 2412/2418 24008G13MPS BKN030CB

May-24@
12:00 UTC

May-24 @ 12:00 UTC

May-24@
21:00 UTC

May-24 @ 21:00 UTC

TAF UADD 241100Z 2412/2421 26005G10MPS 5000 -SHRA BR SCT050CB BKN100
Wind
  • 260° at 10 KTS
  • {Gusting to 19 KTS
Conditions
Light Rain, Mist
Cloud Levels
  • Scattered at 5,000' AGL
  • Broken at 10,000' AGL

May-24@
12:00 UTC

May-24 @ 12:00 UTC

May-24@
18:00 UTC

May-24 @ 18:00 UTC

TEMPO 2412/2418 24008G13MPS BKN030CB

Temporary

Temporary Changes expected for less than half the time period

Wind
  • 240° at 16 KTS
  • {Gusting to 25 KTS
Cloud Levels
  • Broken at 3,000' AGL